Time;durP1;ratioP1;P1;durP2;ratioP2;P2;SDS_P1;SDS_P2;PMS_P1;PMS_P2;Temp;Humidity;BMP_temperature;BMP_pressure;BME280_temperature;BME280_humidity;BME280_pressure;Samples;Min_cycle;Max_cycle;Signal;HPM_P1;HPM_P2
2021/12/20 00:00:13;;;;;;;20.45;12.55;;;;;;;;;;5117465;27;20078;-79
2021/12/20 00:02:42;;;;;;;19.73;12.88;;;;;;;;;;5116380;27;20015;-78
2021/12/20 00:05:08;;;;;;;20.75;13.45;;;;;;;;;;5117681;27;20019;-77
2021/12/20 00:07:33;;;;;;;21.67;13.60;;;;;;;;;;5117275;27;20029;-78
2021/12/20 00:09:58;;;;;;;18.63;11.93;;;;;;;;;;5116042;27;20023;-78
2021/12/20 00:12:24;;;;;;;16.92;12.00;;;;;;;;;;5117231;27;20015;-78
2021/12/20 00:14:49;;;;;;;17.13;12.15;;;;;;;;;;5117003;27;20023;-78
2021/12/20 00:17:15;;;;;;;18.75;12.77;;;;;;;;;;5117063;27;20087;-79
2021/12/20 00:19:40;;;;;;;21.00;12.57;;;;;;;;;;5117265;27;20105;-79
2021/12/20 00:22:05;;;;;;;19.20;13.30;;;;;;;;;;5115834;27;20023;-78
2021/12/20 00:24:31;;;;;;;19.70;13.43;;;;;;;;;;5116098;27;20072;-78
2021/12/20 00:26:56;;;;;;;45.90;23.90;;;;;;;;;;5115474;27;20048;-78
2021/12/20 00:29:21;;;;;;;57.70;26.92;;;;;;;;;;5115703;27;20441;-78
2021/12/20 00:31:47;;;;;;;21.95;14.02;;;;;;;;;;5115319;27;20111;-79
2021/12/20 00:34:12;;;;;;;21.27;14.60;;;;;;;;;;5116795;27;20027;-79
2021/12/20 00:36:37;;;;;;;26.55;16.75;;;;;;;;;;5115792;27;20011;-78
2021/12/20 00:41:47;;;;;;;19.73;14.35;;;;;;;;;;5116752;27;20485;-79
2021/12/20 00:44:13;;;;;;;22.33;14.98;;;;;;;;;;5116718;27;20782;-78
2021/12/20 00:46:38;;;;;;;18.35;12.90;;;;;;;;;;5117009;27;20069;-79
2021/12/20 00:49:03;;;;;;;21.35;14.27;;;;;;;;;;5115410;27;20030;-78
2021/12/20 00:51:29;;;;;;;19.65;12.73;;;;;;;;;;5116548;27;20454;-78
2021/12/20 00:53:54;;;;;;;18.83;14.18;;;;;;;;;;5115214;27;20065;-78
2021/12/20 00:56:20;;;;;;;20.98;14.60;;;;;;;;;;5114825;27;20029;-78
2021/12/20 00:58:45;;;;;;;23.88;16.33;;;;;;;;;;5115299;27;20414;-78
2021/12/20 01:01:11;;;;;;;23.45;16.05;;;;;;;;;;5115183;27;20031;-78
2021/12/20 01:03:36;;;;;;;17.75;13.20;;;;;;;;;;5115070;27;20019;-77
2021/12/20 01:06:02;;;;;;;26.05;16.08;;;;;;;;;;5115044;27;20012;-79
2021/12/20 01:08:32;;;;;;;23.92;16.35;;;;;;;;;;5116176;27;20062;-78
2021/12/20 01:10:58;;;;;;;20.77;13.95;;;;;;;;;;5116741;27;20350;-79
2021/12/20 01:13:28;;;;;;;19.25;12.85;;;;;;;;;;5116761;27;20549;-77
2021/12/20 01:15:54;;;;;;;23.20;14.18;;;;;;;;;;5115183;27;20457;-78
2021/12/20 01:18:20;;;;;;;22.42;15.27;;;;;;;;;;5116305;27;20039;-78
2021/12/20 01:20:47;;;;;;;19.55;12.48;;;;;;;;;;5116114;27;20046;-78
2021/12/20 01:23:13;;;;;;;18.30;14.55;;;;;;;;;;5116767;27;20468;-78
2021/12/20 01:25:38;;;;;;;21.58;15.45;;;;;;;;;;5116383;27;20810;-79
2021/12/20 01:28:04;;;;;;;26.15;16.40;;;;;;;;;;5115276;27;20096;-78
2021/12/20 01:30:29;;;;;;;24.08;16.23;;;;;;;;;;5114330;27;20023;-78
2021/12/20 01:32:55;;;;;;;28.00;17.40;;;;;;;;;;5114480;27;20026;-78
2021/12/20 01:35:23;;;;;;;21.65;14.60;;;;;;;;;;5114585;27;20450;-78
2021/12/20 01:37:48;;;;;;;22.65;14.18;;;;;;;;;;5114145;27;20023;-78
2021/12/20 01:40:15;;;;;;;24.90;15.35;;;;;;;;;;5114604;27;20076;-78
2021/12/20 01:42:41;;;;;;;28.17;15.82;;;;;;;;;;5116190;27;20022;-78
2021/12/20 01:45:11;;;;;;;24.02;14.15;;;;;;;;;;5113767;27;20027;-78
2021/12/20 01:47:39;;;;;;;28.83;19.17;;;;;;;;;;5115779;27;20015;-78
2021/12/20 01:50:11;;;;;;;24.42;16.10;;;;;;;;;;5115815;27;20043;-78
2021/12/20 01:52:43;;;;;;;24.70;16.52;;;;;;;;;;5113695;27;20022;-78
2021/12/20 01:55:26;;;;;;;27.35;16.75;;;;;;;;;;5114423;28;20034;-78
2021/12/20 01:57:51;;;;;;;20.08;14.02;;;;;;;;;;5115268;27;20015;-78
2021/12/20 02:00:22;;;;;;;22.08;14.88;;;;;;;;;;5114361;28;20027;-78
2021/12/20 02:02:48;;;;;;;28.52;16.85;;;;;;;;;;5116702;27;20012;-77
2021/12/20 02:05:22;;;;;;;24.10;14.75;;;;;;;;;;5117195;28;20409;-78
2021/12/20 02:08:03;;;;;;;21.42;14.13;;;;;;;;;;5116932;28;20354;-78
2021/12/20 02:10:30;;;;;;;21.77;14.02;;;;;;;;;;5118496;27;20016;-78
2021/12/20 02:12:56;;;;;;;18.23;13.55;;;;;;;;;;5114639;28;20011;-78
2021/12/20 02:15:21;;;;;;;18.10;12.27;;;;;;;;;;5114698;28;20016;-78
2021/12/20 02:17:47;;;;;;;22.42;15.18;;;;;;;;;;5114563;28;20015;-78
2021/12/20 02:20:29;;;;;;;16.25;10.38;;;;;;;;;;5116240;27;20015;-78
2021/12/20 02:22:56;;;;;;;19.52;12.52;;;;;;;;;;5114443;28;20095;-78
2021/12/20 02:25:21;;;;;;;24.48;14.55;;;;;;;;;;5114468;28;20019;-78
2021/12/20 02:27:47;;;;;;;26.17;13.98;;;;;;;;;;5115738;28;20057;-78
2021/12/20 02:30:36;;;;;;;29.45;18.92;;;;;;;;;;5117150;27;20027;-78
2021/12/20 02:38:27;;;;;;;24.98;14.85;;;;;;;;;;5116397;28;20115;-78
2021/12/20 02:41:01;;;;;;;26.77;14.88;;;;;;;;;;5114425;28;20106;-78
2021/12/20 02:43:28;;;;;;;23.25;14.23;;;;;;;;;;5114658;28;20064;-77
2021/12/20 02:45:58;;;;;;;24.10;15.65;;;;;;;;;;5115408;28;20023;-78
2021/12/20 02:48:23;;;;;;;36.13;21.08;;;;;;;;;;5115798;27;20016;-79
2021/12/20 02:50:52;;;;;;;20.80;12.77;;;;;;;;;;5113862;28;20046;-78
2021/12/20 02:53:17;;;;;;;22.50;13.77;;;;;;;;;;5115687;27;20050;-78
2021/12/20 02:55:43;;;;;;;17.90;10.30;;;;;;;;;;5115272;28;20082;-78
2021/12/20 02:58:08;;;;;;;14.88;10.73;;;;;;;;;;5114848;28;20517;-78
2021/12/20 03:00:34;;;;;;;11.52;9.05;;;;;;;;;;5114799;27;20023;-79
2021/12/20 03:02:59;;;;;;;13.63;8.73;;;;;;;;;;5118677;27;20019;-78
2021/12/20 03:05:24;;;;;;;11.35;7.55;;;;;;;;;;5118107;27;20044;-78
2021/12/20 03:07:53;;;;;;;16.88;11.07;;;;;;;;;;5117698;27;20030;-77
2021/12/20 03:10:21;;;;;;;13.73;9.35;;;;;;;;;;5119688;27;20581;-78
2021/12/20 03:12:48;;;;;;;13.40;8.95;;;;;;;;;;5117356;27;20528;-78
2021/12/20 03:15:19;;;;;;;12.07;8.00;;;;;;;;;;5116884;27;20469;-78
2021/12/20 03:17:44;;;;;;;14.90;10.65;;;;;;;;;;5117626;27;20030;-78
2021/12/20 03:20:10;;;;;;;15.48;10.98;;;;;;;;;;5119942;27;20023;-79
2021/12/20 03:22:36;;;;;;;12.63;9.20;;;;;;;;;;5117188;27;20099;-77
2021/12/20 03:25:01;;;;;;;12.98;8.27;;;;;;;;;;5117027;27;20023;-79
2021/12/20 03:27:27;;;;;;;10.40;8.23;;;;;;;;;;5107676;27;20022;-78
2021/12/20 03:29:52;;;;;;;11.60;8.32;;;;;;;;;;5097659;28;20020;-78
2021/12/20 03:32:17;;;;;;;10.25;7.28;;;;;;;;;;5096021;28;20023;-77
2021/12/20 03:34:43;;;;;;;10.57;7.00;;;;;;;;;;5096384;28;20122;-78
2021/12/20 03:37:08;;;;;;;16.65;9.07;;;;;;;;;;5096034;28;20016;-78
2021/12/20 03:39:33;;;;;;;12.60;7.22;;;;;;;;;;5096155;28;20019;-77
2021/12/20 03:42:00;;;;;;;10.68;6.70;;;;;;;;;;5097578;28;20016;-78
2021/12/20 03:44:25;;;;;;;15.80;10.70;;;;;;;;;;5095804;28;20024;-78
2021/12/20 03:46:51;;;;;;;9.18;7.10;;;;;;;;;;5096697;28;20016;-77
2021/12/20 03:49:16;;;;;;;10.10;7.38;;;;;;;;;;5099178;28;20027;-78
2021/12/20 03:51:42;;;;;;;15.73;9.60;;;;;;;;;;5096053;28;20416;-78
2021/12/20 03:54:07;;;;;;;14.55;8.35;;;;;;;;;;5098217;28;20069;-78
2021/12/20 03:56:33;;;;;;;8.30;6.40;;;;;;;;;;5095639;28;20034;-79
2021/12/20 03:58:58;;;;;;;10.05;6.55;;;;;;;;;;5097343;28;20502;-78
2021/12/20 04:01:25;;;;;;;9.35;6.75;;;;;;;;;;5097325;28;20092;-77
2021/12/20 04:03:51;;;;;;;12.82;8.98;;;;;;;;;;5095881;28;20283;-78
2021/12/20 04:06:16;;;;;;;15.45;9.32;;;;;;;;;;5097431;28;20055;-77
2021/12/20 04:08:42;;;;;;;12.15;9.13;;;;;;;;;;5095953;28;20015;-78
2021/12/20 04:11:08;;;;;;;8.40;6.10;;;;;;;;;;5097310;28;20015;-77
2021/12/20 04:13:33;;;;;;;9.43;6.03;;;;;;;;;;5095576;28;20031;-79
2021/12/20 04:15:59;;;;;;;7.30;5.70;;;;;;;;;;5095402;28;20028;-78
2021/12/20 04:18:25;;;;;;;7.97;6.68;;;;;;;;;;5095270;28;20118;-78
2021/12/20 04:20:50;;;;;;;8.50;6.28;;;;;;;;;;5096210;28;20335;-78
2021/12/20 04:23:16;;;;;;;14.95;9.77;;;;;;;;;;5096839;28;20023;-77
2021/12/20 04:25:41;;;;;;;21.25;13.18;;;;;;;;;;5095444;28;20020;-78
2021/12/20 04:28:07;;;;;;;9.73;7.72;;;;;;;;;;5096966;28;20018;-78
2021/12/20 04:30:32;;;;;;;12.15;9.57;;;;;;;;;;5095195;28;20536;-78
2021/12/20 04:32:58;;;;;;;11.57;9.15;;;;;;;;;;5096373;28;20470;-78
2021/12/20 04:35:24;;;;;;;15.10;9.32;;;;;;;;;;5095049;28;20758;-78
2021/12/20 04:37:50;;;;;;;15.07;10.30;;;;;;;;;;5095467;28;20031;-78
2021/12/20 04:40:21;;;;;;;12.10;9.48;;;;;;;;;;5094714;28;20495;-78
2021/12/20 04:42:56;;;;;;;13.18;10.07;;;;;;;;;;5095179;28;20023;-78
2021/12/20 04:45:23;;;;;;;13.25;9.95;;;;;;;;;;5096285;28;20027;-78
2021/12/20 04:47:48;;;;;;;12.75;9.35;;;;;;;;;;5094786;28;20027;-78
2021/12/20 04:50:13;;;;;;;15.52;10.07;;;;;;;;;;5095401;28;20034;-78
2021/12/20 04:52:41;;;;;;;13.73;10.30;;;;;;;;;;5096734;28;20098;-76
2021/12/20 04:55:06;;;;;;;12.00;9.07;;;;;;;;;;5097066;28;20027;-78
2021/12/20 04:57:32;;;;;;;14.27;10.07;;;;;;;;;;5095119;28;20504;-78
2021/12/20 04:59:57;;;;;;;17.10;11.25;;;;;;;;;;5096557;28;20020;-78
2021/12/20 05:02:22;;;;;;;13.70;9.88;;;;;;;;;;5095709;28;20069;-79
2021/12/20 05:04:48;;;;;;;14.60;11.07;;;;;;;;;;5096594;28;20027;-77
2021/12/20 05:07:13;;;;;;;14.35;11.30;;;;;;;;;;5096357;28;20024;-78
2021/12/20 05:09:40;;;;;;;15.20;11.00;;;;;;;;;;5096931;28;20447;-78
2021/12/20 05:12:14;;;;;;;34.25;20.65;;;;;;;;;;5096459;28;20039;-78
2021/12/20 05:14:40;;;;;;;34.85;22.67;;;;;;;;;;5098222;28;20135;-78
2021/12/20 05:17:06;;;;;;;23.58;15.50;;;;;;;;;;5096384;28;20047;-78
2021/12/20 05:19:31;;;;;;;18.00;12.98;;;;;;;;;;5098667;28;20119;-78
2021/12/20 05:21:56;;;;;;;15.02;10.02;;;;;;;;;;5095700;28;20019;-77
2021/12/20 05:24:22;;;;;;;26.98;18.98;;;;;;;;;;5096272;28;20076;-77
2021/12/20 05:26:47;;;;;;;29.40;19.33;;;;;;;;;;5097170;28;20026;-77
2021/12/20 05:29:12;;;;;;;23.90;14.98;;;;;;;;;;5096061;28;20140;-76
2021/12/20 05:31:38;;;;;;;20.63;13.23;;;;;;;;;;5096665;28;20435;-77
2021/12/20 05:34:03;;;;;;;19.58;12.85;;;;;;;;;;5094281;28;20027;-76
2021/12/20 05:36:29;;;;;;;17.00;10.45;;;;;;;;;;5095033;28;20094;-77
2021/12/20 05:38:54;;;;;;;25.98;15.57;;;;;;;;;;5094164;28;20015;-77
2021/12/20 05:43:11;;;;;;;21.30;11.98;;;;;;;;;;5134008;27;20390;-78
2021/12/20 05:45:36;;;;;;;23.38;14.15;;;;;;;;;;5131679;27;20515;-79
2021/12/20 05:48:02;;;;;;;24.33;14.68;;;;;;;;;;5134010;27;20015;-79
2021/12/20 05:50:28;;;;;;;24.52;12.02;;;;;;;;;;5134126;27;20021;-79
2021/12/20 05:52:53;;;;;;;19.45;12.13;;;;;;;;;;5133497;27;20027;-79
2021/12/20 05:55:19;;;;;;;24.38;12.85;;;;;;;;;;5130036;27;20023;-78
2021/12/20 05:57:45;;;;;;;13.10;7.78;;;;;;;;;;5131595;27;20022;-79
2021/12/20 06:00:15;;;;;;;15.88;10.10;;;;;;;;;;5132212;27;20030;-77
2021/12/20 06:02:42;;;;;;;34.25;17.63;;;;;;;;;;5133934;27;20042;-79
2021/12/20 06:05:07;;;;;;;20.30;13.30;;;;;;;;;;5131995;27;20019;-79
2021/12/20 06:07:33;;;;;;;26.27;14.50;;;;;;;;;;5134073;27;20015;-79
2021/12/20 06:09:58;;;;;;;19.63;12.38;;;;;;;;;;5133561;27;20093;-78
2021/12/20 06:12:23;;;;;;;13.73;9.88;;;;;;;;;;5134497;27;20469;-78
2021/12/20 06:14:49;;;;;;;17.10;11.77;;;;;;;;;;5132252;27;20134;-78
2021/12/20 06:17:14;;;;;;;15.90;11.82;;;;;;;;;;5131603;27;20011;-79
2021/12/20 06:19:40;;;;;;;21.20;11.75;;;;;;;;;;5133404;27;20422;-78
2021/12/20 06:22:07;;;;;;;14.02;8.50;;;;;;;;;;5133424;27;20046;-77
2021/12/20 06:24:33;;;;;;;12.13;7.93;;;;;;;;;;5132952;27;20027;-77
2021/12/20 06:26:58;;;;;;;7.70;5.68;;;;;;;;;;5132960;27;20015;-78
2021/12/20 06:29:24;;;;;;;9.45;6.63;;;;;;;;;;5131595;27;20103;-78
2021/12/20 06:31:49;;;;;;;15.13;10.18;;;;;;;;;;5132648;27;20019;-77
2021/12/20 06:34:14;;;;;;;17.55;9.88;;;;;;;;;;5133291;27;20086;-78
2021/12/20 06:36:40;;;;;;;20.40;11.23;;;;;;;;;;5132304;27;20023;-78
2021/12/20 06:39:05;;;;;;;20.58;12.18;;;;;;;;;;5133218;27;20011;-79
2021/12/20 06:41:31;;;;;;;21.08;12.00;;;;;;;;;;5132219;27;20046;-77
2021/12/20 06:43:56;;;;;;;25.95;13.68;;;;;;;;;;5133709;27;20011;-79
2021/12/20 06:46:23;;;;;;;46.40;24.67;;;;;;;;;;5132655;27;20402;-78
2021/12/20 06:48:49;;;;;;;30.98;16.10;;;;;;;;;;5133213;27;20381;-78
2021/12/20 06:51:14;;;;;;;28.25;16.00;;;;;;;;;;5131043;27;20023;-78
2021/12/20 06:53:39;;;;;;;17.23;11.90;;;;;;;;;;5123673;27;20054;-77
2021/12/20 06:56:05;;;;;;;18.85;12.50;;;;;;;;;;5111310;27;20015;-77
2021/12/20 06:58:30;;;;;;;10.73;8.23;;;;;;;;;;5108626;27;20603;-76
2021/12/20 07:00:56;;;;;;;9.45;7.43;;;;;;;;;;5108262;27;20039;-77
2021/12/20 07:03:22;;;;;;;11.85;8.85;;;;;;;;;;5104928;27;20030;-77
2021/12/20 07:05:47;;;;;;;14.35;8.95;;;;;;;;;;5108409;27;20412;-77
2021/12/20 07:08:13;;;;;;;22.02;13.27;;;;;;;;;;5097765;28;20011;-78
2021/12/20 07:10:38;;;;;;;19.00;11.98;;;;;;;;;;5096802;28;20023;-77
2021/12/20 07:13:04;;;;;;;21.25;12.55;;;;;;;;;;5098559;27;20016;-78
2021/12/20 07:15:31;;;;;;;17.38;11.45;;;;;;;;;;5095290;28;20463;-77
2021/12/20 07:17:56;;;;;;;18.75;10.63;;;;;;;;;;5096086;28;20455;-76
2021/12/20 07:20:22;;;;;;;15.88;10.15;;;;;;;;;;5097354;28;20136;-77
2021/12/20 07:22:47;;;;;;;16.58;9.75;;;;;;;;;;5096469;28;20496;-78
2021/12/20 07:25:12;;;;;;;10.27;7.88;;;;;;;;;;5100303;27;20386;-78
2021/12/20 07:27:39;;;;;;;12.40;8.32;;;;;;;;;;5116520;27;20015;-78
2021/12/20 07:30:05;;;;;;;10.05;7.53;;;;;;;;;;5116918;27;20034;-76
2021/12/20 07:32:30;;;;;;;10.60;7.97;;;;;;;;;;5117780;27;20465;-78
2021/12/20 07:34:55;;;;;;;14.73;10.52;;;;;;;;;;5116343;27;20026;-76
2021/12/20 07:37:22;;;;;;;12.60;8.52;;;;;;;;;;5116457;27;20042;-78
2021/12/20 07:39:47;;;;;;;7.43;5.63;;;;;;;;;;5116629;27;20408;-77
2021/12/20 07:42:12;;;;;;;9.50;6.38;;;;;;;;;;5115725;27;20051;-78
2021/12/20 07:44:38;;;;;;;13.07;9.25;;;;;;;;;;5116425;27;20019;-78
2021/12/20 07:47:03;;;;;;;6.93;4.97;;;;;;;;;;5116207;27;20023;-77
2021/12/20 07:49:29;;;;;;;11.68;7.30;;;;;;;;;;5116279;27;20067;-78
2021/12/20 07:51:54;;;;;;;9.70;6.60;;;;;;;;;;5116352;27;20457;-76
2021/12/20 07:54:20;;;;;;;6.78;5.35;;;;;;;;;;5117807;27;20413;-77
2021/12/20 07:56:45;;;;;;;9.20;6.30;;;;;;;;;;5116138;27;20019;-77
2021/12/20 07:59:11;;;;;;;15.52;10.23;;;;;;;;;;5117633;27;20047;-77
2021/12/20 08:01:36;;;;;;;8.20;5.80;;;;;;;;;;5115508;27;20069;-79
2021/12/20 08:04:03;;;;;;;11.77;7.47;;;;;;;;;;5115739;27;20015;-77
2021/12/20 08:06:28;;;;;;;7.25;5.80;;;;;;;;;;5115712;27;20574;-77
2021/12/20 08:08:54;;;;;;;26.30;15.20;;;;;;;;;;5115729;27;20015;-77
2021/12/20 08:11:19;;;;;;;7.97;4.60;;;;;;;;;;5117579;27;20023;-77
2021/12/20 08:13:44;;;;;;;18.50;9.13;;;;;;;;;;5117355;27;20023;-77
2021/12/20 08:16:14;;;;;;;43.58;26.17;;;;;;;;;;5114184;27;20027;-76
2021/12/20 08:18:43;;;;;;;22.13;14.57;;;;;;;;;;5093194;27;20020;-78
2021/12/20 08:21:08;;;;;;;31.67;20.63;;;;;;;;;;5093908;28;20549;-78
2021/12/20 08:23:37;;;;;;;21.00;12.80;;;;;;;;;;5111472;27;20185;-80
2021/12/20 08:26:03;;;;;;;11.25;9.32;;;;;;;;;;5095389;28;20038;-77
2021/12/20 08:28:28;;;;;;;16.23;11.00;;;;;;;;;;5094809;28;20019;-77
2021/12/20 08:30:54;;;;;;;17.48;11.13;;;;;;;;;;5096020;28;20016;-77
2021/12/20 08:33:19;;;;;;;17.27;11.27;;;;;;;;;;5097731;28;20020;-77
2021/12/20 08:35:49;;;;;;;25.83;18.05;;;;;;;;;;5096591;28;20097;-77
2021/12/20 08:38:14;;;;;;;;;;;;;;;;;;5095162;28;20035;-77
2021/12/20 08:40:40;;;;;;;29.00;15.93;;;;;;;;;;5096991;28;19908;-77
2021/12/20 08:43:05;;;;;;;14.27;8.95;;;;;;;;;;5094505;28;20385;-77
2021/12/20 08:45:30;;;;;;;25.70;15.35;;;;;;;;;;5094623;28;20028;-77
2021/12/20 08:47:56;;;;;;;28.10;15.95;;;;;;;;;;5094520;28;20026;-77
2021/12/20 08:50:22;;;;;;;41.85;23.15;;;;;;;;;;5095879;28;20020;-76
2021/12/20 08:52:47;;;;;;;27.80;15.85;;;;;;;;;;5094748;28;20019;-76
2021/12/20 08:55:13;;;;;;;29.42;16.58;;;;;;;;;;5094836;28;20343;-76
2021/12/20 08:57:39;;;;;;;29.48;18.60;;;;;;;;;;5095683;28;20470;-79
2021/12/20 09:00:06;;;;;;;22.48;14.27;;;;;;;;;;5097215;28;20098;-77
2021/12/20 09:02:31;;;;;;;22.85;13.27;;;;;;;;;;5096219;28;20032;-77
2021/12/20 09:04:57;;;;;;;12.13;7.68;;;;;;;;;;5094167;28;20160;-76
2021/12/20 09:07:22;;;;;;;13.00;8.15;;;;;;;;;;5096058;28;20072;-75
2021/12/20 09:09:48;;;;;;;10.63;7.00;;;;;;;;;;5111703;27;20450;-77
2021/12/20 09:12:15;;;;;;;13.10;8.68;;;;;;;;;;5094020;28;20023;-76
2021/12/20 09:14:41;;;;;;;17.08;10.30;;;;;;;;;;5096925;28;20463;-76
2021/12/20 09:17:06;;;;;;;9.18;6.40;;;;;;;;;;5095716;28;20096;-78
2021/12/20 09:19:34;;;;;;;18.55;10.52;;;;;;;;;;5096558;28;20137;-78
2021/12/20 09:21:59;;;;;;;12.85;8.45;;;;;;;;;;5111629;27;20034;-78
2021/12/20 09:24:25;;;;;;;22.33;11.93;;;;;;;;;;5111260;27;20396;-78
2021/12/20 09:26:50;;;;;;;24.33;15.52;;;;;;;;;;5103534;27;20161;-77
2021/12/20 09:29:16;;;;;;;16.58;9.23;;;;;;;;;;5114378;27;20051;-78
2021/12/20 09:31:41;;;;;;;11.15;7.30;;;;;;;;;;5114508;27;20366;-77
2021/12/20 09:34:06;;;;;;;16.75;10.70;;;;;;;;;;5114390;27;20447;-77
2021/12/20 09:36:33;;;;;;;12.30;7.65;;;;;;;;;;5115675;27;20473;-77
2021/12/20 09:38:59;;;;;;;27.60;16.15;;;;;;;;;;5115606;27;20015;-79
2021/12/20 09:42:00;;;;;;;37.88;22.73;;;;;;;;;;5113682;27;20174;-78
2021/12/20 09:44:13;;;;;;;23.63;14.38;;;;;;;;;;5115923;27;20106;-78
2021/12/20 09:46:38;;;;;;;17.10;10.27;;;;;;;;;;5115786;27;20153;-77
2021/12/20 09:49:04;;;;;;;17.83;10.77;;;;;;;;;;5114703;27;20130;-76
2021/12/20 09:51:30;;;;;;;11.63;7.65;;;;;;;;;;5115738;27;20015;-78
2021/12/20 09:53:56;;;;;;;18.50;9.70;;;;;;;;;;5113994;28;20023;-77
2021/12/20 09:56:25;;;;;;;14.23;8.25;;;;;;;;;;5116296;27;20019;-78
2021/12/20 09:58:52;;;;;;;11.90;6.38;;;;;;;;;;5113926;28;20015;-77
2021/12/20 10:01:18;;;;;;;13.88;8.10;;;;;;;;;;5115688;27;20028;-79
2021/12/20 10:03:43;;;;;;;14.10;9.35;;;;;;;;;;5114445;28;20120;-76
2021/12/20 10:06:09;;;;;;;11.93;7.88;;;;;;;;;;5112053;27;20351;-78
2021/12/20 10:08:37;;;;;;;16.77;10.30;;;;;;;;;;5112288;28;20023;-77
2021/12/20 10:11:04;;;;;;;31.20;17.67;;;;;;;;;;5113826;28;20025;-78
2021/12/20 10:13:29;;;;;;;18.70;11.25;;;;;;;;;;5114579;28;20031;-77
2021/12/20 10:15:56;;;;;;;22.75;13.95;;;;;;;;;;5115656;27;20085;-77
2021/12/20 10:18:21;;;;;;;18.35;11.45;;;;;;;;;;5114246;28;20110;-78
2021/12/20 10:20:51;;;;;;;10.88;6.90;;;;;;;;;;5112912;28;20168;-78
2021/12/20 10:23:21;;;;;;;13.95;8.48;;;;;;;;;;5099983;27;20035;-77
2021/12/20 10:25:48;;;;;;;18.15;11.48;;;;;;;;;;5092038;28;20094;-77
2021/12/20 10:28:15;;;;;;;13.18;8.27;;;;;;;;;;5094042;28;20053;-77
2021/12/20 10:30:41;;;;;;;35.97;18.92;;;;;;;;;;5100552;27;20020;-76
2021/12/20 10:33:08;;;;;;;15.27;9.38;;;;;;;;;;5109685;27;20030;-77
2021/12/20 10:35:41;;;;;;;26.75;15.63;;;;;;;;;;5107903;27;20022;-75
2021/12/20 10:38:20;;;;;;;34.63;19.35;;;;;;;;;;5099569;27;20526;-77
2021/12/20 10:40:46;;;;;;;17.98;10.55;;;;;;;;;;5111375;27;20027;-76
2021/12/20 10:43:14;;;;;;;17.40;11.00;;;;;;;;;;5103132;27;20046;-75
2021/12/20 10:45:40;;;;;;;18.02;12.30;;;;;;;;;;5107275;27;20027;-76
2021/12/20 10:48:09;;;;;;;36.80;20.73;;;;;;;;;;5118787;27;20481;-77
2021/12/20 10:50:42;;;;;;;23.52;13.43;;;;;;;;;;5118796;27;20026;-77
2021/12/20 10:53:12;;;;;;;11.15;7.70;;;;;;;;;;5119354;27;20027;-76
2021/12/20 10:55:42;;;;;;;10.70;7.63;;;;;;;;;;5119416;27;20454;-76
2021/12/20 10:58:29;;;;;;;8.65;6.03;;;;;;;;;;5119043;27;20026;-77
2021/12/20 11:01:03;;;;;;;5.65;4.82;;;;;;;;;;5117351;27;20015;-76
2021/12/20 11:03:35;;;;;;;7.88;6.68;;;;;;;;;;5117228;27;20083;-75
2021/12/20 11:06:25;;;;;;;8.73;6.95;;;;;;;;;;5117160;27;20647;-75
2021/12/20 11:09:07;;;;;;;11.05;8.23;;;;;;;;;;5118664;27;20442;-76
2021/12/20 11:11:39;;;;;;;11.70;7.97;;;;;;;;;;5118833;27;20019;-75
2021/12/20 11:14:05;;;;;;;12.15;8.75;;;;;;;;;;5107955;27;20015;-75
2021/12/20 11:16:42;;;;;;;12.70;9.15;;;;;;;;;;5109480;27;20015;-76
2021/12/20 11:19:07;;;;;;;9.40;6.65;;;;;;;;;;5107687;27;20015;-76
2021/12/20 11:21:34;;;;;;;13.45;9.00;;;;;;;;;;5116776;27;20419;-76
2021/12/20 11:24:00;;;;;;;13.70;11.20;;;;;;;;;;5118225;27;20055;-77
2021/12/20 11:26:27;;;;;;;5.15;4.65;;;;;;;;;;5117788;27;20047;-75
2021/12/20 11:28:54;;;;;;;17.15;10.75;;;;;;;;;;5118811;27;20011;-74
2021/12/20 11:31:19;;;;;;;8.82;6.43;;;;;;;;;;5118330;27;20392;-75
2021/12/20 11:33:45;;;;;;;19.23;12.50;;;;;;;;;;5118423;27;20015;-75
2021/12/20 11:36:10;;;;;;;15.70;10.77;;;;;;;;;;5118222;27;20446;-77
2021/12/20 11:38:36;;;;;;;9.80;6.97;;;;;;;;;;5118620;27;20794;-76
2021/12/20 11:41:02;;;;;;;22.77;15.85;;;;;;;;;;5118992;27;20027;-77
2021/12/20 11:43:27;;;;;;;17.55;12.55;;;;;;;;;;5109773;27;20106;-75
2021/12/20 11:45:53;;;;;;;12.70;9.45;;;;;;;;;;5101101;27;20343;-76
2021/12/20 11:48:20;;;;;;;15.48;9.93;;;;;;;;;;5106669;27;20015;-75
2021/12/20 11:50:45;;;;;;;8.38;6.80;;;;;;;;;;5105161;27;20023;-76
2021/12/20 11:53:15;;;;;;;15.13;11.55;;;;;;;;;;5116781;27;20282;-76
2021/12/20 11:55:45;;;;;;;12.98;8.80;;;;;;;;;;5109259;27;20413;-76
2021/12/20 11:58:30;;;;;;;16.15;11.15;;;;;;;;;;5104975;27;20372;-77
2021/12/20 12:01:02;;;;;;;52.70;29.55;;;;;;;;;;5106318;27;20016;-76
2021/12/20 12:03:28;;;;;;;19.42;12.60;;;;;;;;;;5106435;27;20118;-76
2021/12/20 12:05:58;;;;;;;23.25;15.60;;;;;;;;;;5105486;27;20106;-76
2021/12/20 12:08:24;;;;;;;41.17;24.38;;;;;;;;;;5108275;27;20098;-76
2021/12/20 12:10:51;;;;;;;30.08;20.02;;;;;;;;;;5099813;27;20031;-76
2021/12/20 12:13:17;;;;;;;18.27;13.13;;;;;;;;;;5096209;28;20020;-76
2021/12/20 12:15:53;;;;;;;8.68;6.18;;;;;;;;;;5097281;28;20508;-75
2021/12/20 12:18:18;;;;;;;17.27;12.30;;;;;;;;;;5094413;28;20526;-77
2021/12/20 12:20:49;;;;;;;21.88;12.63;;;;;;;;;;5095672;28;20023;-77
2021/12/20 12:23:16;;;;;;;23.30;15.45;;;;;;;;;;5095005;28;20024;-76
2021/12/20 12:25:44;;;;;;;17.98;11.68;;;;;;;;;;5094384;28;20027;-76
2021/12/20 12:28:10;;;;;;;17.38;10.35;;;;;;;;;;5095008;28;20454;-76
2021/12/20 12:30:36;;;;;;;18.05;10.13;;;;;;;;;;5096560;28;20733;-75
2021/12/20 12:33:01;;;;;;;21.13;11.68;;;;;;;;;;5096728;28;20477;-78
2021/12/20 12:35:39;;;;;;;11.48;6.85;;;;;;;;;;5094875;28;20458;-76
2021/12/20 12:38:13;;;;;;;28.85;16.05;;;;;;;;;;5095160;28;20019;-76
2021/12/20 12:40:39;;;;;;;34.53;19.27;;;;;;;;;;5096890;28;20412;-76
2021/12/20 12:43:04;;;;;;;20.88;12.90;;;;;;;;;;5096865;28;20044;-75
2021/12/20 12:45:49;;;;;;;25.40;14.68;;;;;;;;;;5096462;28;20062;-76
2021/12/20 12:48:33;;;;;;;13.32;8.50;;;;;;;;;;5096079;28;20473;-74
2021/12/20 12:51:04;;;;;;;11.52;8.75;;;;;;;;;;5095708;28;20035;-75
2021/12/20 12:53:37;;;;;;;31.80;17.70;;;;;;;;;;5096583;28;20019;-75
2021/12/20 12:56:21;;;;;;;10.88;6.28;;;;;;;;;;5094504;28;20020;-76
2021/12/20 12:59:06;;;;;;;14.50;8.48;;;;;;;;;;5096116;28;20431;-76
2021/12/20 13:01:32;;;;;;;7.53;5.78;;;;;;;;;;5094421;28;20028;-76
2021/12/20 13:03:57;;;;;;;10.20;6.75;;;;;;;;;;5096039;28;20035;-75
2021/12/20 13:06:25;;;;;;;14.32;8.85;;;;;;;;;;5096182;28;20093;-75
2021/12/20 13:08:53;;;;;;;9.95;6.55;;;;;;;;;;5096629;28;20019;-75
2021/12/20 13:11:20;;;;;;;12.68;8.40;;;;;;;;;;5095202;27;20112;-76
2021/12/20 13:13:53;;;;;;;15.07;8.95;;;;;;;;;;5094467;28;20078;-76
2021/12/20 13:16:24;;;;;;;16.90;10.80;;;;;;;;;;5096603;28;20027;-76
2021/12/20 13:18:51;;;;;;;19.23;11.18;;;;;;;;;;5096361;28;20065;-76
2021/12/20 13:21:21;;;;;;;15.57;8.55;;;;;;;;;;5094243;28;20129;-76
2021/12/20 13:23:48;;;;;;;20.55;11.07;;;;;;;;;;5094213;28;20016;-76
2021/12/20 13:26:20;;;;;;;19.05;10.23;;;;;;;;;;5096589;28;20481;-77
2021/12/20 13:28:47;;;;;;;22.90;13.70;;;;;;;;;;5096376;28;20055;-76
2021/12/20 13:31:14;;;;;;;15.02;9.43;;;;;;;;;;5094025;28;20050;-77
2021/12/20 13:33:45;;;;;;;17.42;11.00;;;;;;;;;;5095659;28;20012;-77
2021/12/20 13:36:20;;;;;;;34.67;20.02;;;;;;;;;;5096021;28;20023;-77
2021/12/20 13:38:50;;;;;;;34.50;21.60;;;;;;;;;;5093548;28;20051;-76
2021/12/20 13:41:26;;;;;;;34.33;17.45;;;;;;;;;;5095691;28;20052;-77
2021/12/20 13:44:01;;;;;;;33.42;17.50;;;;;;;;;;5095447;28;20415;-78
2021/12/20 13:46:32;;;;;;;25.55;14.25;;;;;;;;;;5093661;28;20358;-76
2021/12/20 13:49:05;;;;;;;54.95;31.67;;;;;;;;;;5094020;28;20034;-77
2021/12/20 13:51:33;;;;;;;61.40;33.72;;;;;;;;;;5093859;28;20019;-77
2021/12/20 13:53:59;;;;;;;105.78;44.92;;;;;;;;;;5096135;28;20020;-76
2021/12/20 13:56:26;;;;;;;80.88;36.05;;;;;;;;;;5095114;28;20076;-77
2021/12/20 13:58:52;;;;;;;60.10;26.73;;;;;;;;;;5095269;28;20089;-77
2021/12/20 14:01:18;;;;;;;51.63;27.77;;;;;;;;;;5093759;28;20457;-77
2021/12/20 14:03:44;;;;;;;87.72;45.33;;;;;;;;;;5095985;28;20108;-76
2021/12/20 14:06:30;;;;;;;74.60;40.88;;;;;;;;;;5097887;28;20069;-76
2021/12/20 14:09:07;;;;;;;50.70;30.77;;;;;;;;;;5097427;28;20335;-77
2021/12/20 14:11:32;;;;;;;31.08;17.10;;;;;;;;;;5099368;28;20019;-78
2021/12/20 14:14:07;;;;;;;41.65;21.65;;;;;;;;;;5097243;28;20019;-78
2021/12/20 14:16:52;;;;;;;48.05;28.27;;;;;;;;;;5097690;28;20019;-77
2021/12/20 14:19:18;;;;;;;43.72;26.70;;;;;;;;;;5098090;27;20070;-78
2021/12/20 14:21:43;;;;;;;84.97;43.90;;;;;;;;;;5112711;27;20051;-79
2021/12/20 14:24:08;;;;;;;91.25;46.20;;;;;;;;;;5099584;28;20024;-78
2021/12/20 14:26:37;;;;;;;70.60;33.88;;;;;;;;;;5105377;27;20027;-77
2021/12/20 14:29:09;;;;;;;39.13;21.95;;;;;;;;;;5114875;27;20019;-78
2021/12/20 14:31:50;;;;;;;57.22;30.60;;;;;;;;;;5107584;27;20523;-77
2021/12/20 14:34:16;;;;;;;52.20;35.70;;;;;;;;;;5103416;27;20023;-78